Time;durP1;ratioP1;P1;durP2;ratioP2;P2;SDS_P1;SDS_P2;PMS_P1;PMS_P2;Temp;Humidity;BMP_temperature;BMP_pressure;BME280_temperature;BME280_humidity;BME280_pressure;Samples;Min_cycle;Max_cycle;Signal;HPM_P1;HPM_P2
2022/06/26 00:02:15;;;;;;;;;;;19.10;99.90;;;;;;5088959;27;37799;-59
2022/06/26 00:04:44;;;;;;;;;;;19.10;99.90;;;;;;5086011;27;36397;-60
2022/06/26 00:07:11;;;;;;;;;;;19.10;99.90;;;;;;5088373;27;38063;-60
2022/06/26 00:09:38;;;;;;;;;;;19.10;99.90;;;;;;5087302;27;38448;-60
2022/06/26 00:12:06;;;;;;;;;;;19.10;99.90;;;;;;5086960;27;36939;-60
2022/06/26 00:14:34;;;;;;;;;;;19.10;99.90;;;;;;5087311;27;35167;-60
2022/06/26 00:17:01;;;;;;;;;;;19.10;99.90;;;;;;5087521;27;37943;-60
2022/06/26 00:19:28;;;;;;;;;;;19.10;99.90;;;;;;5087550;27;38866;-60
2022/06/26 00:21:55;;;;;;;;;;;19.00;99.90;;;;;;5089446;27;38427;-60
2022/06/26 00:24:22;;;;;;;;;;;19.00;99.90;;;;;;5086016;27;35212;-60
2022/06/26 00:26:49;;;;;;;;;;;19.00;99.90;;;;;;5086541;27;38336;-60
2022/06/26 00:29:17;;;;;;;;;;;19.00;99.90;;;;;;5086863;27;37675;-60
2022/06/26 00:31:44;;;;;;;;;;;19.00;99.90;;;;;;5088356;27;36376;-53
2022/06/26 00:34:11;;;;;;;;;;;18.90;99.90;;;;;;5088445;27;36536;-53
2022/06/26 00:36:39;;;;;;;;;;;19.00;99.90;;;;;;5088301;27;36597;-52
2022/06/26 00:39:06;;;;;;;;;;;18.90;99.90;;;;;;5087983;27;38853;-54
2022/06/26 00:41:33;;;;;;;;;;;18.90;99.90;;;;;;5088861;27;38278;-54
2022/06/26 00:44:00;;;;;;;;;;;19.00;99.90;;;;;;5087723;27;37884;-53
2022/06/26 00:46:29;;;;;;;;;;;18.90;99.90;;;;;;5087036;27;37935;-53
2022/06/26 00:48:56;;;;;;;;;;;19.00;99.90;;;;;;5086978;27;38342;-53
2022/06/26 00:51:24;;;;;;;;;;;19.00;99.90;;;;;;5086547;27;37352;-53
2022/06/26 00:53:51;;;;;;;;;;;19.00;99.90;;;;;;5085933;27;36878;-52
2022/06/26 00:56:18;;;;;;;;;;;18.90;99.90;;;;;;5085227;27;37827;-54
2022/06/26 00:58:45;;;;;;;;;;;19.00;99.90;;;;;;5086456;27;37905;-53
2022/06/26 01:01:12;;;;;;;;;;;19.00;99.90;;;;;;5085042;27;37760;-52
2022/06/26 01:03:40;;;;;;;;;;;19.00;99.90;;;;;;5087712;27;37753;-52
2022/06/26 01:06:08;;;;;;;;;;;18.90;99.90;;;;;;5086327;27;38483;-52
2022/06/26 01:08:35;;;;;;;;;;;19.00;99.90;;;;;;5087601;27;38366;-54
2022/06/26 01:11:17;;;;;;;;;;;18.90;99.90;;;;;;5086043;27;37323;-53
2022/06/26 01:13:45;;;;;;;;;;;18.80;99.90;;;;;;5091233;27;36544;-52
2022/06/26 01:16:12;;;;;;;;;;;18.90;99.90;;;;;;5093943;27;37909;-53
2022/06/26 01:18:41;;;;;;;;;;;18.80;99.90;;;;;;5094272;27;37157;-52
2022/06/26 01:21:08;;;;;;;;;;;18.80;99.90;;;;;;5094885;28;38389;-54
2022/06/26 01:23:37;;;;;;;;;;;18.80;99.90;;;;;;5093847;27;40133;-52
2022/06/26 01:26:04;;;;;;;;;;;18.80;99.90;;;;;;5094558;27;39576;-54
2022/06/26 01:28:31;;;;;;;;;;;18.80;99.90;;;;;;5092672;27;40352;-54
2022/06/26 01:30:59;;;;;;;;;;;18.80;99.90;;;;;;5091601;27;36805;-52
2022/06/26 01:33:26;;;;;;;;;;;18.80;99.90;;;;;;5092705;27;37318;-53
2022/06/26 01:35:53;;;;;;;;;;;18.80;99.90;;;;;;5093876;28;36602;-53
2022/06/26 01:38:21;;;;;;;;;;;18.80;99.90;;;;;;5093552;27;38423;-53
2022/06/26 01:40:50;;;;;;;;;;;18.80;99.90;;;;;;5093063;27;37882;-53
2022/06/26 01:43:19;;;;;;;;;;;18.80;99.90;;;;;;5093214;27;36443;-53
2022/06/26 01:45:46;;;;;;;;;;;18.80;99.90;;;;;;5090751;27;39335;-53
2022/06/26 01:48:14;;;;;;;;;;;18.80;99.90;;;;;;5092931;27;38122;-53
2022/06/26 01:50:41;;;;;;;;;;;18.70;99.90;;;;;;5092529;27;37417;-53
2022/06/26 01:53:08;;;;;;;;;;;18.70;99.90;;;;;;5093814;27;36016;-52
2022/06/26 01:55:35;;;;;;;;;;;18.70;99.90;;;;;;5093373;27;39764;-50
2022/06/26 01:58:04;;;;;;;;;;;18.70;99.90;;;;;;5091405;27;40812;-53
2022/06/26 02:00:31;;;;;;;;;;;18.80;99.90;;;;;;5092820;27;37196;-53
2022/06/26 02:02:58;;;;;;;;;;;18.80;99.90;;;;;;5092841;27;37204;-54
2022/06/26 02:05:25;;;;;;;;;;;18.70;99.90;;;;;;5093270;28;39321;-52
2022/06/26 02:07:54;;;;;;;;;;;18.70;99.90;;;;;;5093679;28;31022;-53
2022/06/26 02:15:52;;;;;;;;;;;18.70;99.90;;;;;;5093532;27;37585;-53
2022/06/26 02:18:20;;;;;;;;;;;18.70;99.90;;;;;;5090762;27;38307;-54
2022/06/26 02:20:47;;;;;;;;;;;18.70;99.90;;;;;;5092356;27;36380;-53
2022/06/26 02:23:14;;;;;;;;;;;18.60;99.90;;;;;;5094983;27;36072;-52
2022/06/26 02:25:42;;;;;;;;;;;18.70;99.90;;;;;;5090434;27;39744;-52
2022/06/26 02:28:10;;;;;;;;;;;18.60;99.90;;;;;;5087676;27;39820;-53
2022/06/26 02:30:37;;;;;;;;;;;18.60;99.90;;;;;;5090038;27;36463;-53
2022/06/26 02:33:04;;;;;;;;;;;18.60;99.90;;;;;;5089181;27;36890;-52
2022/06/26 02:35:31;;;;;;;;;;;18.60;99.90;;;;;;5089506;27;38430;-54
2022/06/26 02:37:58;;;;;;;;;;;18.60;99.90;;;;;;5090325;27;40893;-54
2022/06/26 02:40:26;;;;;;;;;;;18.50;99.90;;;;;;5087402;27;37439;-53
2022/06/26 02:42:53;;;;;;;;;;;18.50;99.90;;;;;;5087861;27;34476;-54
2022/06/26 02:45:22;;;;;;;;;;;18.50;99.90;;;;;;5087472;27;37639;-54
2022/06/26 02:47:49;;;;;;;;;;;18.50;99.90;;;;;;5088969;27;39410;-53
2022/06/26 02:50:16;;;;;;;;;;;18.50;99.90;;;;;;5086841;27;36487;-54
2022/06/26 02:52:44;;;;;;;;;;;18.40;99.90;;;;;;5089420;27;37007;-54
2022/06/26 02:55:11;;;;;;;;;;;18.40;99.90;;;;;;5088711;27;39641;-53
2022/06/26 02:57:38;;;;;;;;;;;18.40;99.90;;;;;;5088326;27;37062;-52
2022/06/26 03:00:07;;;;;;;;;;;18.40;99.90;;;;;;5089926;27;37879;-54
2022/06/26 03:02:35;;;;;;;;;;;18.40;99.90;;;;;;5088929;27;36622;-52
2022/06/26 03:05:02;;;;;;;;;;;18.40;99.90;;;;;;5088663;27;37708;-52
2022/06/26 03:07:29;;;;;;;;;;;18.30;99.90;;;;;;5088413;27;37034;-52
2022/06/26 03:09:56;;;;;;;;;;;18.30;99.90;;;;;;5087618;27;40065;-54
2022/06/26 03:12:23;;;;;;;;;;;18.30;99.90;;;;;;5089641;27;36505;-51
2022/06/26 03:14:50;;;;;;;;;;;18.30;99.90;;;;;;5089859;27;38092;-54
2022/06/26 03:17:18;;;;;;;;;;;18.30;99.90;;;;;;5089874;27;37173;-53
2022/06/26 03:19:47;;;;;;;;;;;18.30;99.90;;;;;;5088527;27;36395;-54
2022/06/26 03:22:14;;;;;;;;;;;18.30;99.90;;;;;;5088916;27;35149;-54
2022/06/26 03:24:41;;;;;;;;;;;18.30;99.90;;;;;;5087393;27;38532;-52
2022/06/26 03:27:08;;;;;;;;;;;18.30;99.90;;;;;;5087491;27;37203;-54
2022/06/26 03:29:35;;;;;;;;;;;18.20;99.90;;;;;;5088917;27;37907;-53
2022/06/26 03:32:03;;;;;;;;;;;18.20;99.90;;;;;;5087527;27;36982;-54
2022/06/26 03:34:30;;;;;;;;;;;18.20;99.90;;;;;;5089059;27;37303;-54
2022/06/26 03:36:58;;;;;;;;;;;18.20;99.90;;;;;;5088382;27;39696;-52
2022/06/26 03:39:25;;;;;;;;;;;18.20;99.90;;;;;;5088689;27;37718;-53
2022/06/26 03:42:00;;;;;;;;;;;18.20;99.90;;;;;;5087622;28;35364;-53
2022/06/26 03:44:27;;;;;;;;;;;18.20;99.90;;;;;;5088630;27;37587;-53
2022/06/26 03:46:54;;;;;;;;;;;18.10;99.90;;;;;;5087386;27;38236;-54
2022/06/26 03:49:22;;;;;;;;;;;18.20;99.90;;;;;;5087639;27;36304;-54
2022/06/26 03:51:49;;;;;;;;;;;18.10;99.90;;;;;;5087546;27;36618;-53
2022/06/26 03:54:18;;;;;;;;;;;18.10;99.90;;;;;;5088445;27;38647;-52
2022/06/26 03:56:45;;;;;;;;;;;18.10;99.90;;;;;;5088329;27;38779;-52
2022/06/26 03:59:12;;;;;;;;;;;18.10;99.90;;;;;;5085864;27;37455;-53
2022/06/26 04:01:39;;;;;;;;;;;18.10;99.90;;;;;;5088599;27;37762;-54
2022/06/26 04:04:06;;;;;;;;;;;18.10;99.90;;;;;;5087285;28;39135;-53
2022/06/26 04:06:33;;;;;;;;;;;18.10;99.90;;;;;;5088939;27;38356;-53
2022/06/26 04:09:00;;;;;;;;;;;18.10;99.90;;;;;;5086627;28;39160;-52
2022/06/26 04:11:29;;;;;;;;;;;18.10;99.90;;;;;;5087452;27;36240;-53
2022/06/26 04:13:56;;;;;;;;;;;18.10;99.90;;;;;;5086942;27;38581;-53
2022/06/26 04:16:23;;;;;;;;;;;18.10;99.90;;;;;;5088611;27;37151;-54
2022/06/26 04:18:50;;;;;;;;;;;18.10;99.90;;;;;;5088149;27;39542;-53
2022/06/26 04:21:17;;;;;;;;;;;18.10;99.90;;;;;;5087875;27;38431;-54
2022/06/26 04:23:44;;;;;;;;;;;18.10;99.90;;;;;;5088190;27;39670;-51
2022/06/26 04:26:11;;;;;;;;;;;18.10;99.90;;;;;;5085418;27;39487;-53
2022/06/26 04:28:39;;;;;;;;;;;18.10;99.90;;;;;;5085027;27;36977;-53
2022/06/26 04:31:06;;;;;;;;;;;18.10;99.90;;;;;;5088021;28;35762;-52
2022/06/26 04:33:34;;;;;;;;;;;18.10;99.90;;;;;;5084764;27;38477;-54
2022/06/26 04:36:01;;;;;;;;;;;18.10;99.90;;;;;;5086449;27;39117;-54
2022/06/26 04:38:28;;;;;;;;;;;18.10;99.90;;;;;;5086836;27;37563;-54
2022/06/26 04:40:55;;;;;;;;;;;18.10;99.90;;;;;;5087110;27;39886;-53
2022/06/26 04:43:22;;;;;;;;;;;18.10;99.90;;;;;;5087470;27;39780;-54
2022/06/26 04:45:51;;;;;;;;;;;18.10;99.90;;;;;;5086552;28;39931;-53
2022/06/26 04:48:18;;;;;;;;;;;18.10;99.90;;;;;;5086610;27;36552;-53
2022/06/26 04:50:45;;;;;;;;;;;18.10;99.90;;;;;;5087762;27;36380;-54
2022/06/26 04:53:12;;;;;;;;;;;18.20;99.90;;;;;;5085764;27;38846;-53
2022/06/26 04:55:39;;;;;;;;;;;18.20;99.90;;;;;;5086053;27;37828;-53
2022/06/26 04:58:06;;;;;;;;;;;18.20;99.90;;;;;;5087482;27;37395;-52
2022/06/26 05:00:34;;;;;;;;;;;18.20;99.90;;;;;;5087846;27;35884;-53
2022/06/26 05:03:02;;;;;;;;;;;18.20;99.90;;;;;;5088359;27;37577;-53
2022/06/26 05:05:29;;;;;;;;;;;18.30;99.90;;;;;;5086273;27;38157;-52
2022/06/26 05:07:56;;;;;;;;;;;18.30;99.90;;;;;;5088246;28;36458;-52
2022/06/26 05:10:23;;;;;;;;;;;18.30;99.90;;;;;;5086875;27;37011;-53
2022/06/26 05:12:51;;;;;;;;;;;18.40;99.90;;;;;;5087608;28;36460;-53
2022/06/26 05:15:19;;;;;;;;;;;18.50;99.90;;;;;;5087542;27;37701;-54
2022/06/26 05:17:46;;;;;;;;;;;18.60;99.90;;;;;;5086736;27;38052;-54
2022/06/26 05:20:14;;;;;;;;;;;18.70;99.90;;;;;;5087887;27;35117;-53
2022/06/26 05:22:41;;;;;;;;;;;18.70;99.90;;;;;;5087099;27;36561;-53
2022/06/26 05:25:09;;;;;;;;;;;18.80;99.90;;;;;;5087092;27;38994;-54
2022/06/26 05:27:36;;;;;;;;;;;18.80;99.90;;;;;;5086686;27;37520;-53
2022/06/26 05:30:03;;;;;;;;;;;19.00;99.90;;;;;;5086709;27;37547;-52
2022/06/26 05:32:30;;;;;;;;;;;19.00;99.90;;;;;;5086235;27;38619;-51
2022/06/26 05:34:57;;;;;;;;;;;19.00;99.90;;;;;;5087559;27;37159;-52
2022/06/26 05:37:26;;;;;;;;;;;19.00;99.90;;;;;;5087024;27;38869;-52
2022/06/26 05:39:53;;;;;;;;;;;18.90;99.90;;;;;;5086455;27;37141;-51
2022/06/26 05:42:20;;;;;;;;;;;18.80;99.90;;;;;;5086713;27;38192;-53
2022/06/26 05:44:47;;;;;;;;;;;18.80;99.90;;;;;;5086463;27;39530;-54
2022/06/26 05:47:14;;;;;;;;;;;18.80;99.90;;;;;;5085919;27;37123;-54
2022/06/26 05:49:41;;;;;;;;;;;18.70;99.90;;;;;;5085732;27;37030;-54
2022/06/26 05:52:08;;;;;;;;;;;18.70;99.90;;;;;;5087460;28;39078;-54
2022/06/26 05:54:37;;;;;;;;;;;18.70;99.90;;;;;;5086401;27;40263;-51
2022/06/26 05:57:04;;;;;;;;;;;18.70;99.90;;;;;;5084851;27;37783;-53
2022/06/26 05:59:32;;;;;;;;;;;18.70;99.90;;;;;;5088222;27;37331;-53
2022/06/26 06:01:59;;;;;;;;;;;18.60;99.90;;;;;;5084343;27;36613;-52
2022/06/26 06:04:27;;;;;;;;;;;18.60;99.90;;;;;;5089684;27;37755;-53
2022/06/26 06:06:54;;;;;;;;;;;18.60;99.90;;;;;;5088757;27;38027;-53
2022/06/26 06:09:21;;;;;;;;;;;18.60;99.90;;;;;;5089488;27;35872;-54
2022/06/26 06:11:49;;;;;;;;;;;18.60;99.90;;;;;;5090559;27;37904;-54
2022/06/26 06:14:16;;;;;;;;;;;18.60;99.90;;;;;;5086876;27;38772;-54
2022/06/26 06:16:43;;;;;;;;;;;18.60;99.90;;;;;;5087623;27;37690;-54
2022/06/26 06:19:10;;;;;;;;;;;18.60;99.90;;;;;;5086676;27;36416;-54
2022/06/26 06:21:37;;;;;;;;;;;18.70;99.90;;;;;;5089201;27;38695;-53
2022/06/26 06:24:04;;;;;;;;;;;18.70;99.90;;;;;;5088013;27;40027;-54
2022/06/26 06:26:31;;;;;;;;;;;18.70;99.90;;;;;;5087840;27;36439;-53
2022/06/26 06:29:00;;;;;;;;;;;18.70;99.90;;;;;;5086858;27;37142;-54
2022/06/26 06:31:27;;;;;;;;;;;18.70;99.90;;;;;;5088212;27;37479;-55
2022/06/26 06:33:54;;;;;;;;;;;18.70;99.90;;;;;;5085823;27;41436;-53
2022/06/26 06:36:21;;;;;;;;;;;18.70;99.90;;;;;;5087205;27;37508;-54
2022/06/26 06:38:48;;;;;;;;;;;18.70;99.90;;;;;;5087853;27;38338;-54
2022/06/26 06:41:15;;;;;;;;;;;18.70;99.90;;;;;;5091264;27;38999;-53
2022/06/26 06:43:42;;;;;;;;;;;18.80;99.90;;;;;;5088083;27;37078;-54
2022/06/26 06:46:10;;;;;;;;;;;18.80;99.90;;;;;;5088951;27;36866;-54
2022/06/26 06:48:37;;;;;;;;;;;18.80;99.90;;;;;;5089989;27;36431;-54
2022/06/26 06:51:05;;;;;;;;;;;18.80;99.90;;;;;;5089110;27;36454;-54
2022/06/26 06:53:32;;;;;;;;;;;18.80;99.90;;;;;;5089766;27;38230;-54
2022/06/26 06:55:59;;;;;;;;;;;18.80;99.90;;;;;;5089090;27;37643;-54
2022/06/26 06:58:26;;;;;;;;;;;18.80;99.90;;;;;;5090987;27;36374;-55
2022/06/26 07:00:54;;;;;;;;;;;18.80;99.90;;;;;;5087447;27;37528;-54
2022/06/26 07:03:23;;;;;;;;;;;18.80;99.90;;;;;;5087737;27;37122;-54
2022/06/26 07:05:50;;;;;;;;;;;18.80;99.90;;;;;;5086778;27;37388;-53
2022/06/26 07:08:17;;;;;;;;;;;18.90;99.90;;;;;;5088321;27;37057;-54
2022/06/26 07:10:44;;;;;;;;;;;18.90;99.90;;;;;;5087600;27;39368;-54
2022/06/26 07:13:11;;;;;;;;;;;18.90;99.90;;;;;;5082687;27;38133;-54
2022/06/26 07:15:38;;;;;;;;;;;18.90;99.90;;;;;;5085485;27;37137;-59
2022/06/26 07:18:05;;;;;;;;;;;19.00;99.90;;;;;;5084697;27;35183;-59
2022/06/26 07:20:34;;;;;;;;;;;19.00;99.90;;;;;;5085824;27;38925;-60
2022/06/26 07:23:01;;;;;;;;;;;19.00;99.90;;;;;;5086023;27;38285;-59
2022/06/26 07:25:28;;;;;;;;;;;18.90;99.90;;;;;;5085495;27;37513;-59
2022/06/26 07:27:55;;;;;;;;;;;18.90;99.90;;;;;;5086541;27;37566;-60
2022/06/26 07:30:22;;;;;;;;;;;18.90;99.90;;;;;;5084394;27;36486;-59
2022/06/26 07:32:49;;;;;;;;;;;19.00;99.90;;;;;;5083749;27;38410;-60
2022/06/26 07:35:16;;;;;;;;;;;19.10;99.90;;;;;;5084254;27;37363;-60
2022/06/26 07:37:46;;;;;;;;;;;19.20;99.90;;;;;;5085046;27;35685;-59
2022/06/26 07:40:13;;;;;;;;;;;19.20;99.90;;;;;;5084782;28;38777;-59
2022/06/26 07:42:40;;;;;;;;;;;19.30;99.90;;;;;;5083259;27;40169;-60
2022/06/26 07:45:08;;;;;;;;;;;19.60;99.90;;;;;;5083033;27;38479;-59
2022/06/26 07:47:35;;;;;;;;;;;19.80;99.90;;;;;;5082866;27;35107;-60
2022/06/26 07:50:02;;;;;;;;;;;20.00;99.90;;;;;;5084166;27;37492;-59
2022/06/26 07:52:29;;;;;;;;;;;20.20;99.90;;;;;;5085478;27;37065;-60
2022/06/26 07:54:58;;;;;;;;;;;20.30;99.90;;;;;;5084229;27;38128;-60
2022/06/26 07:57:25;;;;;;;;;;;20.40;99.90;;;;;;5084034;27;37382;-60
2022/06/26 07:59:52;;;;;;;;;;;20.50;99.90;;;;;;5084133;27;38412;-60
2022/06/26 08:02:19;;;;;;;;;;;20.50;99.90;;;;;;5084290;27;42461;-60
2022/06/26 08:04:46;;;;;;;;;;;20.50;99.90;;;;;;5084039;27;38523;-61
2022/06/26 08:07:13;;;;;;;;;;;20.40;99.90;;;;;;5084410;27;36963;-60
2022/06/26 08:09:40;;;;;;;;;;;20.40;99.90;;;;;;5084495;27;38649;-60
2022/06/26 08:12:09;;;;;;;;;;;20.50;99.90;;;;;;5083666;28;37180;-60
2022/06/26 08:14:36;;;;;;;;;;;20.40;99.90;;;;;;5084591;27;37835;-60
2022/06/26 08:17:04;;;;;;;;;;;20.50;99.90;;;;;;5084219;27;36926;-60
2022/06/26 08:19:31;;;;;;;;;;;20.60;99.90;;;;;;5083552;28;39329;-60
2022/06/26 08:22:04;;;;;;;;;;;20.50;99.90;;;;;;5083976;27;39276;-60
2022/06/26 08:24:31;;;;;;;;;;;20.50;99.90;;;;;;5082678;27;37795;-60
2022/06/26 08:26:59;;;;;;;;;;;20.50;99.90;;;;;;5081873;27;37730;-60
2022/06/26 08:29:27;;;;;;;;;;;20.40;99.90;;;;;;5084570;27;38324;-60
2022/06/26 08:31:54;;;;;;;;;;;20.40;99.90;;;;;;5084140;27;38443;-60
2022/06/26 08:34:22;;;;;;;;;;;20.30;99.90;;;;;;5083268;27;38366;-60
2022/06/26 08:36:49;;;;;;;;;;;20.40;99.90;;;;;;5084112;27;35882;-60
2022/06/26 08:39:16;;;;;;;;;;;20.60;99.90;;;;;;5084463;27;38226;-60
2022/06/26 08:41:44;;;;;;;;;;;20.80;99.90;;;;;;5084374;27;36977;-60
2022/06/26 08:44:11;;;;;;;;;;;20.90;99.90;;;;;;5083884;27;39041;-60
2022/06/26 08:46:40;;;;;;;;;;;21.00;99.90;;;;;;5083349;28;36310;-60
2022/06/26 08:49:09;;;;;;;;;;;20.90;99.90;;;;;;5083394;27;37734;-60
2022/06/26 08:51:37;;;;;;;;;;;20.80;99.90;;;;;;5083868;27;38960;-60
2022/06/26 08:54:05;;;;;;;;;;;20.70;99.90;;;;;;5083553;27;39555;-60
2022/06/26 08:56:32;;;;;;;;;;;20.60;99.90;;;;;;5084169;27;36461;-60
2022/06/26 08:58:59;;;;;;;;;;;20.40;99.90;;;;;;5083697;28;38867;-60
2022/06/26 09:01:26;;;;;;;;;;;20.40;99.90;;;;;;5083427;28;39573;-60
2022/06/26 09:03:55;;;;;;;;;;;20.50;99.90;;;;;;5083905;27;37476;-60
2022/06/26 09:06:22;;;;;;;;;;;20.50;99.90;;;;;;5083289;27;36134;-60
2022/06/26 09:08:49;;;;;;;;;;;20.70;99.90;;;;;;5079129;27;37907;-59
2022/06/26 09:11:17;;;;;;;;;;;20.90;99.90;;;;;;5066220;27;38096;-60
2022/06/26 09:13:49;;;;;;;;;;;21.10;99.90;;;;;;5079852;28;37378;-60
2022/06/26 09:16:17;;;;;;;;;;;21.30;99.90;;;;;;5078001;27;35196;-60
2022/06/26 09:18:44;;;;;;;;;;;21.30;99.90;;;;;;5076783;27;39311;-61
2022/06/26 09:21:13;;;;;;;;;;;21.20;99.90;;;;;;5079005;27;37797;-61
2022/06/26 09:23:52;;;;;;;;;;;21.10;99.90;;;;;;5075706;27;39178;-60
2022/06/26 09:26:19;;;;;;;;;;;21.20;99.90;;;;;;5079567;27;35949;-60
2022/06/26 09:28:46;;;;;;;;;;;21.30;99.90;;;;;;5076408;27;38305;-61
2022/06/26 09:31:13;;;;;;;;;;;21.50;99.90;;;;;;5077504;27;39063;-61
2022/06/26 09:33:40;;;;;;;;;;;21.70;99.90;;;;;;5078711;27;38403;-60
2022/06/26 09:36:14;;;;;;;;;;;21.90;99.90;;;;;;5082441;28;36834;-55
2022/06/26 09:38:48;;;;;;;;;;;22.00;99.90;;;;;;5084098;27;36572;-53
2022/06/26 09:41:16;;;;;;;;;;;22.20;99.90;;;;;;5083401;27;39180;-54
2022/06/26 09:43:44;;;;;;;;;;;22.30;99.90;;;;;;5084990;27;38238;-54
2022/06/26 09:46:12;;;;;;;;;;;22.40;99.90;;;;;;5085934;28;35199;-55
2022/06/26 09:48:40;;;;;;;;;;;22.50;99.60;;;;;;5084600;28;36473;-55
2022/06/26 09:51:09;;;;;;;;;;;22.50;99.20;;;;;;5079668;27;37807;-54
2022/06/26 09:53:36;;;;;;;;;;;22.70;99.90;;;;;;5083105;27;36265;-55
2022/06/26 09:56:06;;;;;;;;;;;22.80;99.90;;;;;;5082339;27;36453;-54
2022/06/26 09:58:33;;;;;;;;;;;22.80;99.90;;;;;;5082313;27;38272;-54
2022/06/26 10:06:33;;;;;;;;;;;23.00;99.00;;;;;;5084175;27;36838;-53
2022/06/26 10:09:01;;;;;;;;;;;22.90;98.30;;;;;;5083522;27;38283;-54
2022/06/26 10:11:30;;;;;;;;;;;23.00;98.70;;;;;;5085550;27;37281;-53
2022/06/26 10:13:59;;;;;;;;;;;23.00;98.90;;;;;;5083891;28;36741;-54
2022/06/26 10:16:40;;;;;;;;;;;23.00;98.40;;;;;;5082998;27;36114;-55
2022/06/26 10:19:15;;;;;;;;;;;23.10;97.00;;;;;;5082770;27;37489;-54
2022/06/26 10:21:42;;;;;;;;;;;23.20;98.10;;;;;;5082651;27;39785;-55
2022/06/26 10:24:09;;;;;;;;;;;23.20;97.20;;;;;;5083276;27;37792;-55
2022/06/26 10:26:38;;;;;;;;;;;23.20;97.70;;;;;;5082119;27;39903;-54
2022/06/26 10:29:06;;;;;;;;;;;23.00;96.80;;;;;;5084008;27;37565;-54
2022/06/26 10:31:43;;;;;;;;;;;22.90;97.40;;;;;;5081776;27;38624;-55
2022/06/26 10:34:11;;;;;;;;;;;22.70;96.80;;;;;;5082907;28;37423;-54
2022/06/26 10:36:38;;;;;;;;;;;22.60;97.90;;;;;;5083338;27;36164;-55
2022/06/26 10:39:05;;;;;;;;;;;22.50;98.10;;;;;;5083570;27;37795;-55
2022/06/26 10:44:28;;;;;;;;;;;22.40;98.20;;;;;;5077044;27;37117;-53
2022/06/26 10:46:58;;;;;;;;;;;22.30;97.60;;;;;;5080843;27;40573;-55
2022/06/26 10:49:25;;;;;;;;;;;22.30;97.80;;;;;;5081202;27;38937;-55
2022/06/26 10:51:52;;;;;;;;;;;22.30;98.20;;;;;;5085340;27;37739;-54
2022/06/26 10:54:20;;;;;;;;;;;22.30;98.00;;;;;;5083722;27;39215;-55
2022/06/26 10:56:53;;;;;;;;;;;22.20;97.70;;;;;;5082849;27;36163;-54
2022/06/26 10:59:22;;;;;;;;;;;22.20;98.30;;;;;;5083351;27;37755;-54
2022/06/26 11:01:49;;;;;;;;;;;22.20;98.40;;;;;;5084038;27;40995;-54
2022/06/26 11:04:16;;;;;;;;;;;22.30;99.10;;;;;;5084367;27;38325;-54
2022/06/26 11:06:44;;;;;;;;;;;22.40;99.50;;;;;;5083647;27;35261;-55
2022/06/26 11:09:11;;;;;;;;;;;22.40;98.50;;;;;;5083501;27;37585;-54
2022/06/26 11:11:38;;;;;;;;;;;22.50;98.40;;;;;;5083176;27;37134;-55
2022/06/26 11:14:08;;;;;;;;;;;22.50;97.70;;;;;;5084405;27;38835;-54
2022/06/26 11:16:37;;;;;;;;;;;22.60;97.50;;;;;;5081618;27;35167;-55
2022/06/26 11:19:05;;;;;;;;;;;22.60;98.50;;;;;;5083602;27;38415;-55
2022/06/26 11:21:32;;;;;;;;;;;22.70;96.20;;;;;;5083277;27;39115;-55
2022/06/26 11:24:00;;;;;;;;;;;22.70;96.80;;;;;;5083797;27;36415;-55
2022/06/26 11:26:27;;;;;;;;;;;22.60;95.80;;;;;;5082385;27;36344;-54
2022/06/26 11:28:55;;;;;;;;;;;22.60;96.80;;;;;;5083624;27;36633;-55
2022/06/26 11:31:24;;;;;;;;;;;22.60;97.00;;;;;;5083165;27;38409;-55
2022/06/26 11:33:52;;;;;;;;;;;22.70;97.70;;;;;;5083163;27;38185;-54
2022/06/26 11:36:19;;;;;;;;;;;22.70;97.10;;;;;;5083588;27;38702;-54
2022/06/26 11:38:50;;;;;;;;;;;22.60;95.90;;;;;;5083496;27;38429;-55
2022/06/26 11:41:18;;;;;;;;;;;22.50;96.90;;;;;;5083100;27;38357;-54
2022/06/26 11:43:45;;;;;;;;;;;22.50;96.40;;;;;;5083416;27;39045;-54
2022/06/26 11:46:12;;;;;;;;;;;22.40;96.70;;;;;;5082846;27;37654;-55
2022/06/26 11:48:41;;;;;;;;;;;22.50;98.00;;;;;;5082033;27;38459;-54
2022/06/26 11:51:11;;;;;;;;;;;22.50;96.80;;;;;;5082319;27;38581;-54
2022/06/26 11:53:38;;;;;;;;;;;22.60;97.20;;;;;;5083263;27;37973;-53
2022/06/26 11:56:05;;;;;;;;;;;22.60;97.20;;;;;;5081420;27;38445;-55
2022/06/26 11:58:34;;;;;;;;;;;22.70;97.00;;;;;;5079957;27;38054;-54
2022/06/26 12:01:05;;;;;;;;;;;22.70;97.30;;;;;;5079274;27;38156;-55
2022/06/26 12:03:33;;;;;;;;;;;22.70;96.70;;;;;;5081473;28;37560;-54
2022/06/26 12:06:01;;;;;;;;;;;22.60;96.10;;;;;;5079337;27;36131;-54
2022/06/26 12:08:30;;;;;;;;;;;22.50;96.40;;;;;;5080891;27;39330;-55
2022/06/26 12:10:57;;;;;;;;;;;22.50;97.40;;;;;;5080366;27;39812;-55
2022/06/26 12:13:25;;;;;;;;;;;22.40;95.80;;;;;;5080616;28;38270;-54
2022/06/26 12:15:53;;;;;;;;;;;22.30;95.30;;;;;;5082486;27;35945;-55
2022/06/26 12:18:20;;;;;;;;;;;22.30;96.20;;;;;;5083108;28;37225;-55
2022/06/26 12:20:49;;;;;;;;;;;22.30;97.70;;;;;;5084184;27;39007;-54
2022/06/26 12:23:18;;;;;;;;;;;22.30;97.70;;;;;;5084247;27;38665;-54
2022/06/26 12:25:49;;;;;;;;;;;22.30;97.50;;;;;;5083604;27;35726;-54
2022/06/26 12:28:22;;;;;;;;;;;22.30;96.00;;;;;;5083862;27;38744;-54
2022/06/26 12:30:49;;;;;;;;;;;22.20;96.00;;;;;;5083821;28;37087;-54
2022/06/26 12:33:16;;;;;;;;;;;22.20;97.90;;;;;;5083891;27;38140;-54
2022/06/26 12:35:43;;;;;;;;;;;22.10;96.90;;;;;;5084767;27;37000;-54
2022/06/26 12:38:10;;;;;;;;;;;22.10;97.40;;;;;;5083614;27;37829;-55
2022/06/26 12:40:39;;;;;;;;;;;22.10;96.40;;;;;;5084435;27;38249;-54
2022/06/26 12:43:06;;;;;;;;;;;22.10;96.50;;;;;;5083433;27;37390;-54
2022/06/26 12:45:33;;;;;;;;;;;22.00;96.40;;;;;;5083865;27;38945;-54
2022/06/26 12:48:00;;;;;;;;;;;22.00;96.70;;;;;;5083035;28;37721;-55
2022/06/26 12:50:27;;;;;;;;;;;21.90;96.60;;;;;;5082839;28;38652;-54
2022/06/26 12:52:54;;;;;;;;;;;22.00;96.10;;;;;;5083930;27;39043;-54
2022/06/26 12:55:21;;;;;;;;;;;22.00;97.10;;;;;;5082940;27;36961;-54
2022/06/26 12:57:50;;;;;;;;;;;22.00;96.70;;;;;;5082967;28;39116;-54
2022/06/26 13:00:17;;;;;;;;;;;22.00;97.60;;;;;;5082139;27;38690;-54
2022/06/26 13:02:44;;;;;;;;;;;22.10;97.50;;;;;;5082912;28;38190;-54
2022/06/26 13:05:11;;;;;;;;;;;22.10;97.90;;;;;;5082783;27;36185;-53
2022/06/26 13:07:39;;;;;;;;;;;22.20;97.20;;;;;;5083230;27;37521;-54
2022/06/26 13:10:06;;;;;;;;;;;22.20;96.40;;;;;;5082567;27;38556;-54
2022/06/26 13:12:33;;;;;;;;;;;22.10;97.40;;;;;;5082723;27;38075;-55
2022/06/26 13:15:01;;;;;;;;;;;22.10;97.20;;;;;;5084010;27;39425;-54
2022/06/26 13:17:28;;;;;;;;;;;22.00;96.60;;;;;;5082844;28;37288;-54
2022/06/26 13:19:55;;;;;;;;;;;22.00;97.60;;;;;;5082159;27;38456;-54
2022/06/26 13:22:22;;;;;;;;;;;21.90;97.50;;;;;;5083219;27;40040;-54
2022/06/26 13:24:49;;;;;;;;;;;21.90;97.90;;;;;;5083645;27;36985;-53
2022/06/26 13:27:16;;;;;;;;;;;21.90;97.90;;;;;;5082924;27;36467;-54
2022/06/26 13:29:43;;;;;;;;;;;21.90;97.70;;;;;;5083196;27;38533;-54
2022/06/26 13:32:12;;;;;;;;;;;21.90;98.30;;;;;;5082787;27;36518;-55
2022/06/26 13:34:39;;;;;;;;;;;21.90;97.60;;;;;;5083816;27;35243;-54
2022/06/26 13:37:06;;;;;;;;;;;21.90;97.50;;;;;;5083081;27;37607;-55
2022/06/26 13:39:33;;;;;;;;;;;21.80;97.80;;;;;;5083221;27;38689;-55
2022/06/26 13:42:00;;;;;;;;;;;21.80;97.10;;;;;;5081773;27;38865;-54
2022/06/26 13:44:27;;;;;;;;;;;21.70;97.20;;;;;;5083969;27;35393;-55
2022/06/26 13:46:55;;;;;;;;;;;21.70;97.70;;;;;;5082407;27;37921;-54
2022/06/26 13:49:24;;;;;;;;;;;21.80;97.60;;;;;;5082889;27;38473;-54
2022/06/26 13:51:51;;;;;;;;;;;21.80;97.40;;;;;;5082140;27;38411;-54
2022/06/26 13:54:18;;;;;;;;;;;21.80;97.90;;;;;;5083352;27;37931;-54
2022/06/26 13:56:45;;;;;;;;;;;21.80;96.90;;;;;;5082053;27;39055;-55
2022/06/26 13:59:12;;;;;;;;;;;21.70;97.20;;;;;;5083088;28;37231;-54
2022/06/26 14:01:39;;;;;;;;;;;21.60;97.70;;;;;;5082710;27;37440;-55
2022/06/26 14:04:06;;;;;;;;;;;21.60;98.20;;;;;;5083314;27;37055;-55
2022/06/26 14:06:35;;;;;;;;;;;21.50;98.20;;;;;;5083362;27;37700;-55
2022/06/26 14:09:02;;;;;;;;;;;21.50;98.40;;;;;;5083514;27;38518;-55
2022/06/26 14:11:29;;;;;;;;;;;21.40;98.10;;;;;;5081512;27;37504;-55
2022/06/26 14:13:56;;;;;;;;;;;21.40;98.70;;;;;;5082877;27;36831;-55
2022/06/26 14:16:23;;;;;;;;;;;21.30;99.00;;;;;;5081570;27;38614;-55
2022/06/26 14:18:50;;;;;;;;;;;21.30;98.30;;;;;;5081639;28;39125;-53
2022/06/26 14:21:17;;;;;;;;;;;21.20;98.40;;;;;;5085337;27;37127;-54
2022/06/26 14:26:30;;;;;;;;;;;21.10;98.40;;;;;;5085567;28;38542;-54
2022/06/26 14:28:57;;;;;;;;;;;21.10;98.90;;;;;;5085998;27;37970;-55
2022/06/26 14:31:24;;;;;;;;;;;21.00;98.90;;;;;;5086470;27;40446;-54
2022/06/26 14:33:51;;;;;;;;;;;21.00;99.40;;;;;;5085976;27;37021;-54
2022/06/26 14:36:18;;;;;;;;;;;21.00;99.50;;;;;;5085756;27;37157;-54